createdAt,value
2018-03-03T00:02:00.278Z,92.80
2018-03-03T00:04:28.550Z,70.93
2018-03-03T00:06:56.265Z,85.57
2018-03-03T00:09:23.778Z,87.40
2018-03-03T00:11:52.126Z,86.50
2018-03-03T00:14:19.642Z,93.20
2018-03-03T00:16:47.203Z,76.47
2018-03-03T00:19:14.782Z,91.77
2018-03-03T00:21:42.491Z,89.30
2018-03-03T00:24:10.836Z,89.00
2018-03-03T00:26:39.295Z,89.77
2018-03-03T00:29:06.790Z,93.57
2018-03-03T00:31:35.168Z,83.17
2018-03-03T00:34:02.858Z,90.50
2018-03-03T00:36:30.413Z,91.27
2018-03-03T00:38:58.164Z,76.97
2018-03-03T00:41:26.453Z,83.83
2018-03-03T00:43:54.220Z,85.30
2018-03-03T00:46:22.467Z,90.40
2018-03-03T00:48:50.064Z,86.23
2018-03-03T00:51:17.587Z,88.33
2018-03-03T00:53:45.304Z,83.63
2018-03-03T00:56:12.814Z,75.33
2018-03-03T00:58:40.691Z,84.10
2018-03-03T01:01:08.975Z,91.33
2018-03-03T01:03:37.300Z,93.97
2018-03-03T01:06:04.785Z,82.20
2018-03-03T01:08:32.309Z,82.37
2018-03-03T01:10:59.804Z,85.33
2018-03-03T01:13:27.423Z,89.43
2018-03-03T01:15:55.188Z,82.77
2018-03-03T01:18:22.802Z,87.90
2018-03-03T01:20:51.124Z,87.97
2018-03-03T01:23:18.637Z,83.53
2018-03-03T01:25:46.150Z,86.10
2018-03-03T01:28:14.873Z,85.43
2018-03-03T01:30:42.393Z,91.70
2018-03-03T01:33:09.907Z,87.67
2018-03-03T01:35:37.402Z,80.67
2018-03-03T01:38:05.613Z,78.40
2018-03-03T01:40:33.151Z,91.10
2018-03-03T01:43:00.864Z,90.20
2018-03-03T01:45:29.179Z,83.77
2018-03-03T01:47:56.703Z,88.00
2018-03-03T01:50:24.204Z,86.90
2018-03-03T01:52:51.764Z,83.90
2018-03-03T01:55:19.230Z,82.97
2018-03-03T01:57:46.714Z,97.23
2018-03-03T02:00:14.333Z,92.47
2018-03-03T02:02:41.832Z,92.90
2018-03-03T02:05:09.330Z,101.37
2018-03-03T02:07:36.816Z,72.30
2018-03-03T02:10:04.441Z,86.10
2018-03-03T02:12:32.820Z,98.87
2018-03-03T02:15:01.158Z,94.90
2018-03-03T02:17:28.648Z,86.77
2018-03-03T02:19:56.176Z,106.30
2018-03-03T02:22:23.981Z,87.60
2018-03-03T02:24:52.268Z,91.37
2018-03-03T02:27:19.982Z,81.63
2018-03-03T02:29:47.520Z,92.90
2018-03-03T02:32:15.265Z,83.33
2018-03-03T02:34:42.796Z,88.77
2018-03-03T02:37:11.069Z,84.13
2018-03-03T02:39:38.675Z,92.40
2018-03-03T02:42:06.156Z,91.17
2018-03-03T02:44:33.673Z,88.93
2018-03-03T02:47:02.217Z,87.63
2018-03-03T02:49:29.818Z,97.30
2018-03-03T02:51:58.262Z,83.73
2018-03-03T02:54:25.746Z,91.07
2018-03-03T02:56:54.139Z,86.77
2018-03-03T02:59:21.831Z,90.27
2018-03-03T03:01:49.516Z,76.47
2018-03-03T03:04:17.335Z,98.90
2018-03-03T03:06:44.838Z,98.67
2018-03-03T03:09:12.351Z,95.70
2018-03-03T03:11:40.759Z,95.27
2018-03-03T03:14:08.312Z,88.07
2018-03-03T03:16:36.100Z,99.93
2018-03-03T03:19:03.571Z,101.33
2018-03-03T03:21:31.153Z,99.13
2018-03-03T03:23:59.544Z,95.07
2018-03-03T03:26:27.043Z,86.57
2018-03-03T03:28:54.548Z,105.10
2018-03-03T03:31:22.122Z,91.90
2018-03-03T03:33:50.385Z,98.40
2018-03-03T03:36:18.655Z,91.80
2018-03-03T03:38:46.127Z,101.47
2018-03-03T03:41:14.413Z,96.50
2018-03-03T03:43:42.632Z,96.60
2018-03-03T03:46:10.240Z,107.90
2018-03-03T03:48:37.910Z,103.87
2018-03-03T03:51:06.163Z,94.47
2018-03-03T03:53:33.725Z,92.10
2018-03-03T03:56:01.496Z,106.87
2018-03-03T03:58:29.775Z,113.73
2018-03-03T04:00:58.045Z,110.57
2018-03-03T04:03:25.611Z,110.47
2018-03-03T04:05:53.274Z,104.10
2018-03-03T04:08:21.552Z,119.50
2018-03-03T04:10:49.826Z,121.07
2018-03-03T04:13:18.101Z,114.27
2018-03-03T04:15:45.659Z,119.30
2018-03-03T04:18:14.038Z,103.03
2018-03-03T04:20:42.422Z,93.10
2018-03-03T04:23:10.794Z,98.67
2018-03-03T04:25:38.252Z,110.33
2018-03-03T04:28:06.576Z,120.60
2018-03-03T04:30:34.061Z,118.03
2018-03-03T04:33:01.692Z,104.53
2018-03-03T04:35:29.211Z,117.77
2018-03-03T04:37:56.759Z,116.07
2018-03-03T04:40:25.290Z,110.20
2018-03-03T04:42:53.196Z,118.47
2018-03-03T04:45:20.751Z,121.83
2018-03-03T04:47:48.280Z,114.87
2018-03-03T04:50:19.380Z,106.90
2018-03-03T04:52:46.892Z,122.20
2018-03-03T04:55:14.547Z,105.63
2018-03-03T04:57:42.214Z,103.87
2018-03-03T05:00:15.565Z,115.80
2018-03-03T05:02:48.707Z,98.47
2018-03-03T05:08:26.935Z,101.17
2018-03-03T05:11:04.532Z,102.60
2018-03-03T05:13:36.073Z,109.50
2018-03-03T05:16:09.136Z,104.23
2018-03-03T05:18:57.202Z,99.97
2018-03-03T05:21:31.361Z,104.70
2018-03-03T05:27:04.924Z,98.90
2018-03-03T05:29:36.960Z,96.23
2018-03-03T05:35:13.331Z,95.17
2018-03-03T05:37:56.051Z,95.60
2018-03-03T05:40:29.491Z,104.07
2018-03-03T05:43:02.743Z,98.33
2018-03-03T05:45:30.727Z,99.53
2018-03-03T05:48:13.526Z,94.33
2018-03-03T05:50:46.699Z,87.27
2018-03-03T05:56:34.269Z,98.37
2018-03-03T06:05:18.239Z,87.93
2018-03-03T06:08:01.831Z,89.43
2018-03-03T06:10:31.772Z,72.80
2018-03-03T06:12:59.545Z,92.40
2018-03-03T06:15:27.226Z,97.13
2018-03-03T06:17:54.748Z,95.43
2018-03-03T06:20:22.251Z,87.90
2018-03-03T06:22:49.766Z,92.30
2018-03-03T06:25:18.460Z,104.83
2018-03-03T06:27:45.984Z,90.03
2018-03-03T06:30:14.341Z,97.60
2018-03-03T06:32:42.026Z,94.17
2018-03-03T06:35:10.402Z,88.03
2018-03-03T06:37:38.654Z,96.10
2018-03-03T06:40:06.188Z,95.40
2018-03-03T06:42:33.837Z,92.37
2018-03-03T06:45:01.360Z,88.00
2018-03-03T06:47:29.652Z,97.43
2018-03-03T06:49:57.900Z,98.77
2018-03-03T06:52:25.384Z,101.53
2018-03-03T06:54:52.896Z,101.63
2018-03-03T06:57:20.462Z,95.03
2018-03-03T06:59:48.046Z,100.53
2018-03-03T07:02:16.326Z,97.90
2018-03-03T07:04:44.607Z,92.60
2018-03-03T07:07:12.922Z,95.93
2018-03-03T07:09:40.399Z,93.97
2018-03-03T07:12:07.932Z,87.10
2018-03-03T07:14:35.909Z,94.87
2018-03-03T07:17:03.689Z,90.80
2018-03-03T07:19:31.292Z,96.63
2018-03-03T07:21:58.811Z,89.27
2018-03-03T07:24:26.324Z,97.83
2018-03-03T07:26:54.053Z,99.27
2018-03-03T07:29:21.574Z,110.17
2018-03-03T07:31:50.002Z,108.23
2018-03-03T07:34:17.506Z,99.20
2018-03-03T07:36:45.034Z,98.37
2018-03-03T07:39:13.345Z,95.70
2018-03-03T07:41:40.868Z,94.20
2018-03-03T07:44:09.111Z,94.63
2018-03-03T07:46:36.776Z,99.03
2018-03-03T07:49:04.269Z,102.47
2018-03-03T07:51:32.643Z,97.90
2018-03-03T07:54:00.153Z,99.07
2018-03-03T07:56:48.324Z,99.60
2018-03-03T07:59:15.905Z,98.77
2018-03-03T08:01:44.262Z,92.63
2018-03-03T08:04:11.785Z,104.40
2018-03-03T08:06:39.524Z,96.17
2018-03-03T08:09:07.792Z,96.00
2018-03-03T08:11:35.577Z,91.40
2018-03-03T08:14:03.204Z,102.13
2018-03-03T08:16:30.683Z,90.30
2018-03-03T08:18:59.073Z,106.33
2018-03-03T08:21:27.536Z,105.70
2018-03-03T08:23:55.831Z,93.03
2018-03-03T08:26:24.195Z,109.70
2018-03-03T08:28:52.686Z,96.20
2018-03-03T08:31:21.011Z,94.00
2018-03-03T08:33:48.490Z,95.77
2018-03-03T08:36:15.988Z,103.50
2018-03-03T08:38:43.475Z,86.80
2018-03-03T08:41:11.902Z,96.27
2018-03-03T08:43:41.118Z,96.17
2018-03-03T08:46:09.486Z,99.73
2018-03-03T08:48:37.901Z,104.77
2018-03-03T08:51:05.419Z,92.00
2018-03-03T08:53:32.983Z,76.37
2018-03-03T08:56:01.461Z,99.97
2018-03-03T08:58:29.508Z,93.93
2018-03-03T09:00:56.992Z,99.17
2018-03-03T09:03:24.663Z,97.40
2018-03-03T09:05:52.948Z,100.67
2018-03-03T09:08:20.438Z,96.73
2018-03-03T09:10:48.730Z,103.00
2018-03-03T09:13:16.235Z,94.23
2018-03-03T09:15:43.818Z,100.37
2018-03-03T09:18:11.356Z,89.03
2018-03-03T09:20:39.615Z,100.67
2018-03-03T09:23:07.357Z,89.70
2018-03-03T09:25:34.847Z,103.73
2018-03-03T09:28:02.463Z,86.43
2018-03-03T09:30:30.676Z,101.87
2018-03-03T09:32:58.962Z,102.70
2018-03-03T09:35:27.412Z,90.63
2018-03-03T09:37:55.826Z,103.90
2018-03-03T09:40:24.133Z,97.43
2018-03-03T09:42:51.750Z,96.33
2018-03-03T09:45:19.223Z,89.20
2018-03-03T09:47:46.724Z,91.33
2018-03-03T09:50:14.220Z,100.30
2018-03-03T09:52:41.703Z,95.13
2018-03-03T09:55:10.023Z,108.77
2018-03-03T09:57:37.600Z,99.53
2018-03-03T10:00:05.141Z,99.07
2018-03-03T10:02:32.640Z,97.33
2018-03-03T10:05:00.173Z,97.70
2018-03-03T10:07:27.802Z,101.50
2018-03-03T10:09:55.584Z,94.40
2018-03-03T10:12:23.083Z,91.80
2018-03-03T10:14:50.635Z,96.10
2018-03-03T10:17:18.175Z,90.63
2018-03-03T10:19:45.707Z,97.23
2018-03-03T10:22:13.307Z,99.63
2018-03-03T10:24:40.888Z,84.07
2018-03-03T10:27:09.166Z,86.70
2018-03-03T10:29:37.444Z,101.47
2018-03-03T10:32:04.917Z,89.77
2018-03-03T10:34:33.179Z,108.40
2018-03-03T10:37:00.875Z,96.73
2018-03-03T10:39:28.484Z,87.70
2018-03-03T10:41:56.329Z,97.27
2018-03-03T10:44:23.848Z,92.00
2018-03-03T10:46:52.401Z,87.80
2018-03-03T10:49:19.905Z,99.07
2018-03-03T10:51:47.429Z,86.53
2018-03-03T10:54:15.075Z,99.33
2018-03-03T10:56:42.589Z,100.00
2018-03-03T10:59:10.134Z,100.77
2018-03-03T11:01:37.652Z,101.60
2018-03-03T11:04:05.125Z,106.97
2018-03-03T11:06:33.406Z,97.43
2018-03-03T11:09:00.976Z,92.43
2018-03-03T11:11:29.213Z,83.53
2018-03-03T11:13:56.683Z,98.77
2018-03-03T11:16:24.165Z,92.93
2018-03-03T11:18:52.548Z,105.40
2018-03-03T11:21:20.820Z,99.00
2018-03-03T11:23:49.075Z,84.07
2018-03-03T11:26:16.546Z,87.23
2018-03-03T11:28:44.280Z,83.07
2018-03-03T11:31:11.822Z,93.50
2018-03-03T11:33:39.464Z,90.43
2018-03-03T11:36:07.168Z,91.67
2018-03-03T11:38:34.710Z,97.20
2018-03-03T11:41:02.223Z,95.73
2018-03-03T11:43:30.491Z,97.83
2018-03-03T11:45:58.807Z,99.13
2018-03-03T11:48:26.399Z,102.57
2018-03-03T11:50:53.925Z,101.20
2018-03-03T11:53:21.654Z,95.30
2018-03-03T11:55:49.175Z,83.43
2018-03-03T11:58:16.745Z,91.60
2018-03-03T12:00:44.223Z,88.40
2018-03-03T12:03:11.833Z,89.67
2018-03-03T12:05:39.478Z,98.07
2018-03-03T12:08:07.720Z,100.87
2018-03-03T12:10:36.014Z,98.23
2018-03-03T12:13:04.656Z,98.80
2018-03-03T12:15:32.160Z,94.43
2018-03-03T12:17:59.646Z,97.77
2018-03-03T12:20:27.166Z,86.53
2018-03-03T12:22:55.484Z,95.30
2018-03-03T12:25:24.076Z,90.00
2018-03-03T12:27:52.253Z,100.80
2018-03-03T12:30:19.737Z,87.03
2018-03-03T12:32:47.364Z,89.03
2018-03-03T12:35:14.945Z,86.63
2018-03-03T12:37:42.433Z,88.07
2018-03-03T12:40:09.919Z,97.70
2018-03-03T12:42:37.618Z,98.10
2018-03-03T12:45:05.098Z,92.40
2018-03-03T12:47:32.610Z,93.57
2018-03-03T12:50:00.136Z,96.10
2018-03-03T12:52:27.635Z,88.03
2018-03-03T12:54:55.118Z,104.57
2018-03-03T12:57:22.601Z,95.40
2018-03-03T12:59:50.948Z,104.53
2018-03-03T13:02:18.492Z,87.83
2018-03-03T14:08:46.180Z,94.90
2018-03-03T14:11:14.560Z,93.03
2018-03-03T14:13:42.143Z,95.50
2018-03-03T14:16:09.659Z,97.10
2018-03-03T14:18:37.955Z,90.63
2018-03-03T14:21:05.469Z,99.90
2018-03-03T14:23:32.963Z,95.27
2018-03-03T14:26:01.206Z,95.50
2018-03-03T14:28:29.159Z,101.67
2018-03-03T14:30:56.675Z,95.00
2018-03-03T14:33:24.933Z,89.60
2018-03-03T14:35:52.451Z,96.10
2018-03-03T14:38:19.964Z,98.60
2018-03-03T14:40:47.523Z,87.93
2018-03-03T14:43:15.870Z,92.57
2018-03-03T14:45:43.367Z,101.57
2018-03-03T14:48:11.592Z,105.00
2018-03-03T14:50:39.092Z,87.83
2018-03-03T14:53:07.351Z,91.67
2018-03-03T14:55:34.860Z,88.80
2018-03-03T14:58:02.346Z,91.80
2018-03-03T15:00:30.140Z,108.83
2018-03-03T15:02:58.575Z,103.00
2018-03-03T15:05:27.181Z,88.50
2018-03-03T15:07:54.724Z,98.90
2018-03-03T15:10:22.335Z,103.30
2018-03-03T15:12:50.791Z,97.27
2018-03-03T15:15:18.415Z,110.10
2018-03-03T15:17:45.938Z,106.87
2018-03-03T15:20:14.365Z,113.33
2018-03-03T15:22:41.842Z,110.53
2018-03-03T15:25:09.409Z,106.10
2018-03-03T15:27:36.897Z,108.80
2018-03-03T15:30:05.369Z,104.60
2018-03-03T15:32:33.662Z,101.90
2018-03-03T15:35:01.215Z,95.90
2018-03-03T15:37:29.492Z,100.80
2018-03-03T15:39:57.774Z,111.10
2018-03-03T15:42:26.039Z,120.63
2018-03-03T15:44:53.670Z,110.43
2018-03-03T15:47:21.228Z,101.47
2018-03-03T15:49:48.787Z,106.27
2018-03-03T15:52:16.415Z,111.13
2018-03-03T15:54:44.241Z,113.60
2018-03-03T15:57:12.588Z,105.43
2018-03-03T15:59:40.080Z,103.33
2018-03-03T16:02:07.567Z,94.77
2018-03-03T16:04:36.240Z,106.73
2018-03-03T16:07:04.491Z,105.13
2018-03-03T16:09:31.996Z,104.87
2018-03-03T16:12:00.458Z,107.60
2018-03-03T16:14:28.799Z,102.53
2018-03-03T16:16:56.578Z,111.97
2018-03-03T16:19:24.140Z,113.27
2018-03-03T16:21:52.550Z,110.70
2018-03-03T16:24:20.932Z,119.10
2018-03-03T16:26:48.451Z,113.47
2018-03-03T16:29:16.156Z,104.70
2018-03-03T16:31:43.851Z,103.20
2018-03-03T16:34:11.432Z,112.00
2018-03-03T16:36:38.981Z,114.93
2018-03-03T16:39:07.325Z,116.80
2018-03-03T16:41:34.816Z,101.27
2018-03-03T16:44:02.380Z,128.50
2018-03-03T16:46:29.871Z,107.20
2018-03-03T16:48:58.273Z,104.70
2018-03-03T16:51:25.679Z,108.23
2018-03-03T16:53:53.258Z,111.10
2018-03-03T16:56:20.898Z,104.87
2018-03-03T16:58:48.483Z,112.07
2018-03-03T17:01:16.157Z,114.53
2018-03-03T17:03:44.492Z,100.33
2018-03-03T17:06:12.052Z,115.87
2018-03-03T17:08:39.833Z,111.97
2018-03-03T17:11:07.458Z,109.90
2018-03-03T17:13:36.077Z,109.90
2018-03-03T17:16:04.088Z,108.70
2018-03-03T17:18:32.496Z,104.60
2018-03-03T17:21:00.788Z,102.83
2018-03-03T17:23:28.387Z,108.33
2018-03-03T17:25:56.678Z,118.13
2018-03-03T17:28:24.992Z,110.43
2018-03-03T17:30:52.576Z,113.00
2018-03-03T17:33:20.443Z,102.33
2018-03-03T17:35:48.930Z,111.53
2018-03-03T17:38:16.650Z,118.53
2018-03-03T17:40:44.224Z,105.03
2018-03-03T17:43:11.809Z,112.00
2018-03-03T17:45:40.367Z,114.23
2018-03-03T17:48:07.857Z,115.07
2018-03-03T17:50:35.401Z,111.37
2018-03-03T17:53:02.914Z,121.50
2018-03-03T17:55:31.173Z,118.87
2018-03-03T17:57:58.906Z,104.23
2018-03-03T18:00:26.430Z,111.67
2018-03-03T18:02:54.167Z,110.87
2018-03-03T18:05:22.506Z,116.57
2018-03-03T18:07:50.135Z,124.17
2018-03-03T18:10:17.757Z,115.60
2018-03-03T18:12:45.335Z,116.80
2018-03-03T18:15:13.762Z,112.70
2018-03-03T18:17:41.251Z,114.77
2018-03-03T18:20:08.718Z,107.20
2018-03-03T18:22:36.260Z,115.10
2018-03-03T18:25:03.782Z,118.23
2018-03-03T18:27:32.074Z,114.23
2018-03-03T18:29:59.569Z,113.27
2018-03-03T18:32:28.037Z,110.97
2018-03-03T18:34:55.627Z,125.53
2018-03-03T18:37:23.208Z,121.17
2018-03-03T18:39:50.740Z,115.57
2018-03-03T18:42:18.411Z,117.00
2018-03-03T18:44:46.438Z,107.10
2018-03-03T18:47:14.068Z,116.77
2018-03-03T18:49:41.586Z,90.83
2018-03-03T18:52:09.919Z,110.07
2018-03-03T18:54:37.577Z,120.03
2018-03-03T18:57:06.170Z,119.60
2018-03-03T18:59:34.068Z,121.80
2018-03-03T19:02:01.655Z,115.30
2018-03-03T19:04:30.155Z,118.43
2018-03-03T19:06:57.660Z,117.37
2018-03-03T19:09:25.175Z,118.10
2018-03-03T19:11:52.867Z,116.53
2018-03-03T19:14:20.484Z,118.07
2018-03-03T19:16:48.016Z,114.27
2018-03-03T19:19:15.623Z,123.17
2018-03-03T19:21:43.139Z,119.67
2018-03-03T19:24:10.723Z,114.73
2018-03-03T19:26:38.195Z,105.03
2018-03-03T19:29:05.792Z,122.33
2018-03-03T19:31:33.365Z,113.60
2018-03-03T19:34:01.013Z,116.53
2018-03-03T19:36:28.573Z,113.80
2018-03-03T19:38:56.157Z,116.30
2018-03-03T19:41:23.644Z,115.68
2018-03-03T19:43:51.195Z,114.63
2018-03-03T19:46:18.715Z,118.00
2018-03-03T19:48:46.283Z,121.72
2018-03-03T19:51:13.978Z,118.47
2018-03-03T19:53:41.973Z,124.17
2018-03-03T19:56:09.516Z,111.23
2018-03-03T19:58:37.070Z,118.07
2018-03-03T20:01:05.652Z,125.68
2018-03-03T20:03:33.192Z,123.20
2018-03-03T20:06:00.804Z,118.17
2018-03-03T20:08:28.321Z,124.70
2018-03-03T20:10:56.089Z,118.23
2018-03-03T20:13:24.378Z,119.33
2018-03-03T20:15:52.768Z,120.27
2018-03-03T20:18:20.252Z,118.63
2018-03-03T20:20:47.761Z,122.17
2018-03-03T20:23:16.300Z,116.57
2018-03-03T20:25:44.016Z,128.87
2018-03-03T20:28:11.950Z,121.47
2018-03-03T20:30:39.530Z,119.97
2018-03-03T20:33:07.102Z,106.47
2018-03-03T20:35:36.045Z,117.97
2018-03-03T20:38:03.599Z,121.80
2018-03-03T20:40:31.092Z,115.10
2018-03-03T20:42:58.663Z,125.93
2018-03-03T20:45:27.052Z,122.13
2018-03-03T20:47:54.830Z,132.47
2018-03-03T20:50:22.492Z,114.83
2018-03-03T20:52:50.205Z,120.27
2018-03-03T20:55:17.815Z,113.93
2018-03-03T20:57:46.085Z,128.87
2018-03-03T21:00:14.089Z,125.60
2018-03-03T21:02:41.601Z,138.70
2018-03-03T21:05:09.993Z,125.27
2018-03-03T21:07:37.586Z,127.43
2018-03-03T21:10:05.249Z,117.93
2018-03-03T21:12:48.650Z,109.50
2018-03-03T21:15:16.919Z,130.83
2018-03-03T21:17:45.152Z,122.33
2018-03-03T21:20:12.799Z,124.87
2018-03-03T21:22:40.716Z,119.40
2018-03-03T21:25:09.003Z,120.27
2018-03-03T21:27:36.725Z,126.33
2018-03-03T21:30:04.317Z,131.37
2018-03-03T21:32:32.765Z,131.23
2018-03-03T21:35:00.266Z,116.87
2018-03-03T21:37:28.735Z,122.77
2018-03-03T21:39:56.471Z,122.73
2018-03-03T21:42:23.956Z,130.57
2018-03-03T21:44:52.307Z,128.20
2018-03-03T21:47:19.835Z,120.60
2018-03-03T21:49:47.355Z,125.00
2018-03-03T21:52:14.985Z,135.30
2018-03-03T21:54:42.744Z,129.57
2018-03-03T21:57:10.241Z,127.43
2018-03-03T21:59:38.517Z,129.83
2018-03-03T22:02:06.756Z,136.43
2018-03-03T22:04:35.355Z,128.33
2018-03-03T22:07:03.785Z,124.47
2018-03-03T22:09:31.472Z,124.30
2018-03-03T22:11:58.993Z,120.83
2018-03-03T22:14:26.548Z,134.83
2018-03-03T22:16:54.821Z,126.50
2018-03-03T22:19:23.053Z,145.03
2018-03-03T22:21:50.576Z,120.63
2018-03-03T22:24:18.894Z,119.63
2018-03-03T22:26:46.421Z,140.57
2018-03-03T22:29:14.660Z,121.33
2018-03-03T22:31:42.153Z,130.77
2018-03-03T22:34:09.639Z,135.90
2018-03-03T22:36:37.196Z,135.97
2018-03-03T22:39:05.437Z,128.57
2018-03-03T22:41:33.059Z,125.90
2018-03-03T22:44:01.431Z,127.43
2018-03-03T22:46:28.912Z,125.23
2018-03-03T22:48:56.801Z,121.50
2018-03-03T22:51:24.316Z,125.00
2018-03-03T22:53:51.803Z,133.93
2018-03-03T22:56:20.130Z,133.53
2018-03-03T22:58:48.079Z,132.43
2018-03-03T23:01:15.574Z,138.47
2018-03-03T23:03:43.065Z,133.43
2018-03-03T23:06:11.548Z,132.63
2018-03-03T23:08:39.788Z,120.27
2018-03-03T23:11:07.369Z,134.60
2018-03-03T23:13:35.289Z,127.47
2018-03-03T23:16:02.783Z,121.17
2018-03-03T23:18:31.281Z,126.83
2018-03-03T23:20:59.651Z,144.03
2018-03-03T23:23:27.181Z,126.13
2018-03-03T23:25:54.991Z,129.97
2018-03-03T23:28:23.251Z,135.90
2018-03-03T23:30:50.830Z,140.20
2018-03-03T23:33:18.476Z,127.57
2018-03-03T23:35:45.996Z,123.53
2018-03-03T23:38:13.632Z,133.93
2018-03-03T23:40:41.099Z,120.50
2018-03-03T23:43:08.682Z,141.40
2018-03-03T23:45:36.182Z,132.40
2018-03-03T23:48:03.765Z,131.20
2018-03-03T23:50:31.217Z,126.27
2018-03-03T23:52:59.806Z,134.53
2018-03-03T23:55:28.043Z,130.13
2018-03-03T23:57:55.967Z,123.33
